Time;durP1;ratioP1;P1;durP2;ratioP2;P2;SDS_P1;SDS_P2;PMS_P1;PMS_P2;Temp;Humidity;BMP_temperature;BMP_pressure;BME280_temperature;BME280_humidity;BME280_pressure;Samples;Min_cycle;Max_cycle;Signal;HPM_P1;HPM_P2
2023/06/26 00:01:14;;;;;;;5.50;2.50;;;;;;;25.53;71.13;98461.31;6220651;23;20171;-87
2023/06/26 00:03:39;;;;;;;4.83;2.80;;;;;;;25.50;70.21;98461.69;6220771;23;20176;-87
2023/06/26 00:06:05;;;;;;;7.87;3.23;;;;;;;25.46;70.73;98450.53;6220431;23;20160;-87
2023/06/26 00:08:30;;;;;;;7.07;2.23;;;;;;;25.47;70.61;98454.03;6220643;23;20225;-87
2023/06/26 00:10:55;;;;;;;3.97;2.13;;;;;;;25.43;71.12;98452.72;6220638;23;20181;-87
2023/06/26 00:13:22;;;;;;;6.93;2.70;;;;;;;25.36;71.25;98443.78;6247429;23;20159;-87
2023/06/26 00:15:47;;;;;;;5.27;2.53;;;;;;;25.30;71.62;98436.47;6221609;23;20218;-87
2023/06/26 00:18:13;;;;;;;6.43;2.40;;;;;;;25.20;71.09;98438.63;6246960;23;20150;-87
2023/06/26 00:20:38;;;;;;;6.23;2.30;;;;;;;25.24;70.21;98439.91;6246961;23;20609;-86
2023/06/26 00:23:07;;;;;;;6.20;2.60;;;;;;;25.23;70.07;98435.59;6220605;23;20230;-87
2023/06/26 00:25:35;;;;;;;5.50;2.40;;;;;;;25.23;69.91;98439.09;6247017;23;20580;-87
2023/06/26 00:28:01;;;;;;;6.50;2.53;;;;;;;25.08;70.77;98442.84;6246962;23;20224;-86
2023/06/26 00:30:26;;;;;;;7.63;3.13;;;;;;;24.94;71.81;98450.75;6246883;23;20225;-85
2023/06/26 00:32:52;;;;;;;4.63;2.47;;;;;;;24.91;71.86;98444.91;6220339;23;20157;-86
2023/06/26 00:35:17;;;;;;;7.60;2.27;;;;;;;24.90;71.60;98437.88;6220150;23;20164;-86
2023/06/26 00:37:43;;;;;;;7.17;2.70;;;;;;;24.85;71.71;98437.59;6246916;23;20159;-86
2023/06/26 00:40:09;;;;;;;6.70;3.87;;;;;;;24.71;73.12;98443.81;6220329;23;20501;-86
2023/06/26 00:42:34;;;;;;;7.80;3.10;;;;;;;24.81;72.40;98439.84;6221366;23;20592;-85
2023/06/26 00:45:00;;;;;;;7.90;3.43;;;;;;;24.81;72.58;98439.84;6220992;23;20149;-86
2023/06/26 00:47:26;;;;;;;7.23;3.17;;;;;;;24.61;73.46;98438.72;6247160;23;20613;-86
2023/06/26 00:49:52;;;;;;;13.57;3.90;;;;;;;24.57;73.55;98437.44;6246836;23;20623;-86
2023/06/26 00:52:17;;;;;;;7.43;3.77;;;;;;;24.58;73.89;98428.38;6220192;23;20169;-86
2023/06/26 00:54:43;;;;;;;9.73;3.53;;;;;;;24.52;74.87;98428.28;6220461;23;20153;-86
2023/06/26 00:57:08;;;;;;;8.17;3.50;;;;;;;24.38;75.32;98435.31;6220278;23;20221;-85
2023/06/26 00:59:35;;;;;;;7.73;3.97;;;;;;;24.28;75.24;98421.38;6246609;23;20172;-86
2023/06/26 01:02:00;;;;;;;8.20;3.33;;;;;;;24.19;75.93;98427.81;6246560;23;20495;-87
2023/06/26 01:04:27;;;;;;;12.30;4.13;;;;;;;24.18;76.40;98428.84;6246652;23;20608;-86
2023/06/26 01:06:55;;;;;;;8.53;3.90;;;;;;;24.14;75.88;98423.00;6246642;23;20577;-87
2023/06/26 01:09:22;;;;;;;10.40;3.40;;;;;;;24.09;76.41;98419.22;6246556;23;20149;-87
2023/06/26 01:11:48;;;;;;;9.53;3.87;;;;;;;23.98;76.90;98416.97;6220121;23;20173;-86
2023/06/26 01:14:13;;;;;;;6.57;3.17;;;;;;;23.79;77.34;98415.66;6220084;23;20153;-86
2023/06/26 01:16:40;;;;;;;9.60;2.60;;;;;;;23.75;77.15;98409.81;6246441;23;20248;-87
2023/06/26 01:19:26;;;;;;;5.13;2.73;;;;;;;23.65;78.48;98417.28;6219768;23;20243;-87
2023/06/26 01:21:58;;;;;;;6.07;2.93;;;;;;;23.68;77.16;98408.91;6219851;23;20493;-86
2023/06/26 01:24:31;;;;;;;7.57;2.20;;;;;;;23.78;76.64;98411.31;6246531;23;20216;-87
2023/06/26 01:26:59;;;;;;;5.03;2.20;;;;;;;23.77;76.67;98415.81;6246767;23;20137;-89
2023/06/26 01:29:25;;;;;;;5.87;2.17;;;;;;;23.81;76.60;98417.13;6246259;23;20153;-86
2023/06/26 01:31:51;;;;;;;5.17;2.47;;;;;;;23.84;75.86;98406.06;6219818;23;20163;-87
2023/06/26 01:34:17;;;;;;;6.97;2.93;;;;;;;23.82;75.35;98410.75;6247026;23;20466;-87
2023/06/26 01:36:45;;;;;;;10.80;2.60;;;;;;;23.69;75.88;98409.69;6246288;23;20200;-88
2023/06/26 01:39:15;;;;;;;6.10;2.30;;;;;;;23.68;76.24;98402.69;6246153;23;20177;-87
2023/06/26 01:41:41;;;;;;;6.83;3.03;;;;;;;23.68;76.17;98408.91;6246933;23;20528;-88
2023/06/26 01:44:06;;;;;;;6.77;2.43;;;;;;;23.57;76.16;98408.47;6246480;23;20153;-89
2023/06/26 01:46:58;;;;;;;4.43;1.97;;;;;;;23.57;76.20;98412.00;6219674;23;20231;-89
2023/06/26 01:49:29;;;;;;;6.00;2.80;;;;;;;23.51;76.88;98415.38;6220362;23;20152;-88
2023/06/26 01:52:01;;;;;;;5.50;2.27;;;;;;;23.52;77.11;98406.34;6220061;23;20169;-89
2023/06/26 01:54:31;;;;;;;5.17;2.40;;;;;;;23.56;76.71;98412.16;6220100;23;20157;-88
2023/06/26 01:56:58;;;;;;;5.67;2.50;;;;;;;23.58;76.50;98413.66;6220273;23;20149;-86
2023/06/26 01:59:25;;;;;;;4.97;2.00;;;;;;;23.58;76.67;98419.03;6246277;23;20597;-88
2023/06/26 02:01:52;;;;;;;4.00;1.80;;;;;;;23.60;76.53;98414.31;6220217;23;20574;-88
2023/06/26 02:04:17;;;;;;;4.60;1.87;;;;;;;23.61;76.16;98417.81;6246063;23;20160;-90
2023/06/26 02:06:43;;;;;;;4.93;2.00;;;;;;;23.51;77.15;98415.38;6219524;23;20156;-87
2023/06/26 02:09:08;;;;;;;5.10;2.00;;;;;;;23.55;76.27;98416.69;6246049;23;20227;-88
2023/06/26 02:11:34;;;;;;;5.57;2.07;;;;;;;23.56;76.12;98415.66;6219855;23;20175;-90
2023/06/26 02:13:59;;;;;;;5.77;2.13;;;;;;;23.48;76.62;98421.09;6246047;23;20144;-87
2023/06/26 02:16:24;;;;;;;8.93;2.23;;;;;;;23.50;76.63;98419.09;6219527;23;20149;-89
2023/06/26 02:18:50;;;;;;;4.60;2.00;;;;;;;23.56;76.68;98421.03;6219408;23;20153;-87
2023/06/26 02:21:15;;;;;;;6.00;1.80;;;;;;;23.43;77.35;98419.94;6219758;23;20153;-87
2023/06/26 02:23:41;;;;;;;7.13;2.00;;;;;;;23.48;76.83;98422.94;6219589;23;20232;-89
2023/06/26 02:26:06;;;;;;;6.37;2.00;;;;;;;23.48;77.08;98421.09;6219962;23;20160;-88
2023/06/26 02:28:33;;;;;;;4.90;1.90;;;;;;;23.62;75.99;98419.47;6246663;23;20149;-87
2023/06/26 02:30:59;;;;;;;4.57;2.17;;;;;;;23.50;76.22;98427.09;6245764;23;20232;-89
2023/06/26 02:33:24;;;;;;;5.03;2.10;;;;;;;23.67;75.66;98417.09;6219550;23;20239;-87
2023/06/26 02:35:50;;;;;;;4.53;1.87;;;;;;;23.77;74.98;98412.31;6219280;23;20159;-89
2023/06/26 02:38:16;;;;;;;8.03;2.43;;;;;;;23.76;74.66;98414.19;6219769;23;20207;-88
2023/06/26 02:40:42;;;;;;;3.77;1.80;;;;;;;23.79;74.65;98413.78;6219359;23;20204;-89
2023/06/26 02:43:07;;;;;;;4.67;1.90;;;;;;;23.69;75.60;98420.41;6219783;23;20153;-87
2023/06/26 02:45:32;;;;;;;6.03;3.23;;;;;;;23.74;73.99;98426.88;6219382;23;20160;-89
2023/06/26 02:47:58;;;;;;;7.23;2.43;;;;;;;23.77;74.21;98425.69;6245839;23;20230;-91
2023/06/26 02:50:23;;;;;;;5.97;2.63;;;;;;;23.85;74.06;98421.09;6219557;23;20157;-90
2023/06/26 02:52:52;;;;;;;5.70;2.27;;;;;;;23.95;73.42;98426.19;6245828;23;20601;-91
2023/06/26 02:55:21;;;;;;;7.53;3.70;;;;;;;23.86;73.46;98424.63;6245734;23;20149;-90
2023/06/26 02:57:46;;;;;;;7.27;3.27;;;;;;;23.81;73.61;98427.84;6221026;23;20157;-89
2023/06/26 03:00:12;;;;;;;8.00;3.80;;;;;;;23.96;73.97;98437.72;6247763;23;20183;-91
2023/06/26 03:02:38;;;;;;;7.90;3.30;;;;;;;24.03;73.78;98438.69;6221437;23;20588;-89
2023/06/26 03:05:04;;;;;;;6.67;3.03;;;;;;;24.04;73.57;98440.34;6221522;23;20295;-89
2023/06/26 03:07:30;;;;;;;8.07;3.53;;;;;;;24.07;73.57;98442.66;6221628;23;20153;-90
2023/06/26 03:09:55;;;;;;;8.40;3.73;;;;;;;24.04;73.50;98451.03;6247883;23;20145;-88
2023/06/26 03:12:21;;;;;;;7.37;3.47;;;;;;;24.04;73.36;98451.03;6247801;23;20160;-91
2023/06/26 03:14:46;;;;;;;10.07;3.77;;;;;;;24.03;73.68;98444.03;6247663;23;20159;-90
2023/06/26 03:17:12;;;;;;;11.87;4.40;;;;;;;24.04;73.50;98451.03;6247531;23;20199;-89
2023/06/26 03:19:37;;;;;;;15.60;4.93;;;;;;;24.02;74.25;98458.44;6221016;23;20176;-90
2023/06/26 03:22:03;;;;;;;16.00;4.47;;;;;;;24.08;73.96;98457.72;6247712;23;20149;-90
2023/06/26 03:24:29;;;;;;;12.63;4.43;;;;;;;24.12;73.91;98453.66;6247985;23;20637;-90
2023/06/26 03:26:54;;;;;;;10.60;4.63;;;;;;;24.17;73.92;98462.00;6221134;23;20153;-90
2023/06/26 03:29:20;;;;;;;10.70;3.97;;;;;;;24.19;73.74;98459.94;6221409;23;20145;-90
2023/06/26 03:31:45;;;;;;;11.03;4.47;;;;;;;24.25;73.89;98456.56;6247376;23;20145;-89
2023/06/26 03:34:11;;;;;;;8.80;4.13;;;;;;;24.21;73.62;98460.63;6247891;23;20625;-90
2023/06/26 03:36:36;;;;;;;9.30;4.53;;;;;;;24.24;73.69;98463.75;6247853;23;20451;-89
2023/06/26 03:39:03;;;;;;;13.57;4.97;;;;;;;24.28;73.44;98459.72;6248097;23;20149;-91
2023/06/26 03:41:29;;;;;;;13.17;4.50;;;;;;;24.29;72.88;98455.19;6220933;23;20569;-90
2023/06/26 03:43:56;;;;;;;8.90;4.60;;;;;;;24.28;72.90;98453.50;6220954;23;20308;-90
2023/06/26 03:46:22;;;;;;;12.07;4.83;;;;;;;24.28;73.48;98459.72;6247787;23;20149;-92
2023/06/26 03:48:48;;;;;;;9.60;4.63;;;;;;;24.28;72.85;98454.34;6220923;23;20170;-91
2023/06/26 03:51:14;;;;;;;9.97;5.03;;;;;;;24.36;73.09;98461.47;6220924;23;20176;-91
2023/06/26 03:53:39;;;;;;;14.10;5.37;;;;;;;24.43;73.21;98467.75;6220948;23;20248;-91
2023/06/26 03:56:05;;;;;;;9.77;4.50;;;;;;;24.45;72.49;98455.81;6247376;23;20550;-90
2023/06/26 03:58:31;;;;;;;14.43;5.87;;;;;;;24.52;72.38;98460.44;6247375;23;20150;-91
2023/06/26 04:00:57;;;;;;;10.87;5.30;;;;;;;24.49;72.33;98456.28;6247123;23;20169;-89
2023/06/26 04:03:23;;;;;;;12.40;5.30;;;;;;;24.45;72.32;98461.19;6248060;23;20159;-90
2023/06/26 04:05:49;;;;;;;12.87;6.23;;;;;;;24.53;72.52;98468.28;6247390;23;20149;-90
2023/06/26 04:08:14;;;;;;;13.47;6.00;;;;;;;24.58;72.59;98473.13;6246770;23;20191;-90
2023/06/26 04:10:39;;;;;;;17.90;5.60;;;;;;;24.65;72.46;98471.34;6247284;23;20188;-90
2023/06/26 04:13:05;;;;;;;10.93;6.30;;;;;;;24.61;71.96;98475.41;6220785;23;20161;-88
2023/06/26 04:15:30;;;;;;;14.10;6.03;;;;;;;24.49;73.23;98467.00;6247602;23;20153;-89
2023/06/26 04:17:56;;;;;;;11.33;5.50;;;;;;;24.48;74.05;98476.06;6247236;23;20210;-89
2023/06/26 04:20:21;;;;;;;10.27;5.33;;;;;;;24.57;74.28;98474.97;6220566;23;20491;-89
2023/06/26 04:22:46;;;;;;;14.20;5.40;;;;;;;24.61;74.47;98475.41;6221088;23;20164;-89
2023/06/26 04:25:12;;;;;;;12.37;5.60;;;;;;;24.64;73.92;98480.38;6220807;23;20167;-90
2023/06/26 04:27:38;;;;;;;17.47;6.27;;;;;;;24.61;73.94;98486.94;6220771;23;20231;-89
2023/06/26 04:30:06;;;;;;;11.77;5.60;;;;;;;24.70;73.81;98483.19;6247914;23;20145;-89
2023/06/26 04:32:31;;;;;;;11.87;5.50;;;;;;;24.83;73.49;98486.06;6247574;23;20145;-89
2023/06/26 04:34:57;;;;;;;17.73;5.57;;;;;;;24.89;73.11;98481.81;6220997;23;20451;-89
2023/06/26 04:37:24;;;;;;;13.17;6.47;;;;;;;24.92;72.13;98484.94;6221705;23;20153;-89
2023/06/26 04:39:50;;;;;;;14.17;5.53;;;;;;;24.81;71.80;98490.78;6247036;23;20169;-90
2023/06/26 04:42:15;;;;;;;15.00;6.60;;;;;;;24.87;71.88;98481.97;6246959;23;20176;-90
2023/06/26 04:44:41;;;;;;;15.47;6.37;;;;;;;24.90;71.54;98480.78;6220577;23;20153;-91
2023/06/26 04:47:07;;;;;;;15.30;5.30;;;;;;;24.91;72.09;98485.13;6247030;23;20599;-91
2023/06/26 04:49:32;;;;;;;11.07;5.63;;;;;;;25.03;71.40;98481.78;6247006;23;20155;-91
2023/06/26 04:51:59;;;;;;;19.30;7.30;;;;;;;25.04;71.21;98483.44;6220373;23;20172;-90
2023/06/26 04:54:26;;;;;;;16.10;6.17;;;;;;;25.19;70.95;98480.72;6247272;23;20149;-91
2023/06/26 04:56:51;;;;;;;12.67;6.37;;;;;;;25.30;70.55;98480.25;6247045;23;20145;-91
2023/06/26 04:59:17;;;;;;;12.93;5.57;;;;;;;25.31;71.31;98483.75;6246779;23;20199;-90
2023/06/26 05:01:44;;;;;;;11.17;5.80;;;;;;;25.37;71.32;98483.81;6246843;23;20153;-91
2023/06/26 05:04:09;;;;;;;12.40;5.47;;;;;;;25.47;69.81;98483.56;6220477;23;20149;-91
2023/06/26 05:06:35;;;;;;;10.73;5.20;;;;;;;25.57;69.58;98484.06;6247035;23;20149;-91
2023/06/26 05:09:00;;;;;;;13.13;5.60;;;;;;;25.66;69.46;98488.28;6220458;23;20153;-91
2023/06/26 05:11:25;;;;;;;13.20;6.40;;;;;;;25.74;69.37;98484.63;6220634;23;20470;-91
2023/06/26 05:13:51;;;;;;;15.47;5.70;;;;;;;25.79;69.52;98487.56;6220582;23;20149;-90
2023/06/26 05:16:16;;;;;;;12.27;5.93;;;;;;;25.82;69.31;98488.00;6246537;23;20471;-90
2023/06/26 05:18:42;;;;;;;11.37;5.67;;;;;;;25.96;68.99;98489.81;6246843;23;20160;-92
2023/06/26 05:21:07;;;;;;;14.40;6.40;;;;;;;25.91;69.40;98486.88;6220122;23;20251;-91
2023/06/26 05:23:34;;;;;;;14.63;6.43;;;;;;;25.88;69.14;98487.25;6220279;23;20157;-91
2023/06/26 05:26:03;;;;;;;12.07;6.63;;;;;;;25.95;68.41;98493.50;6220184;23;20164;-89
2023/06/26 05:28:31;;;;;;;13.30;6.53;;;;;;;25.93;68.76;98484.81;6246469;23;20145;-90
2023/06/26 05:30:57;;;;;;;12.77;6.13;;;;;;;25.91;69.43;98492.25;6246578;23;20562;-90
2023/06/26 05:33:24;;;;;;;16.63;6.53;;;;;;;26.04;69.26;98492.34;6220032;23;20157;-89
2023/06/26 05:35:52;;;;;;;11.50;5.40;;;;;;;26.00;69.41;98492.91;6246549;23;20211;-90
2023/06/26 05:38:18;;;;;;;14.77;6.97;;;;;;;25.86;68.40;98504.59;6219975;23;20167;-88
2023/06/26 05:40:43;;;;;;;11.90;5.93;;;;;;;25.83;67.81;98505.81;6219862;23;20252;-89
2023/06/26 05:43:09;;;;;;;11.53;5.90;;;;;;;26.03;67.57;98504.13;6246618;23;20150;-88
2023/06/26 05:45:35;;;;;;;10.93;6.10;;;;;;;25.97;68.77;98502.19;6219833;23;20161;-90
2023/06/26 05:48:00;;;;;;;12.43;6.17;;;;;;;26.08;68.18;98512.41;6246287;23;20210;-90
2023/06/26 05:50:27;;;;;;;18.20;6.63;;;;;;;25.93;68.66;98511.66;6246299;23;20534;-88
2023/06/26 05:52:53;;;;;;;11.60;5.73;;;;;;;25.94;67.68;98505.25;6219712;23;20173;-87
2023/06/26 05:55:19;;;;;;;9.70;5.83;;;;;;;26.10;67.13;98513.03;6246107;23;20155;-89
2023/06/26 05:57:46;;;;;;;14.75;5.82;;;;;;;26.17;67.21;98508.63;6234320;23;20521;-88
2023/06/26 06:00:12;;;;;;;10.07;5.90;;;;;;;26.20;66.36;98507.38;6246079;23;20169;-90
2023/06/26 06:02:39;;;;;;;16.23;6.27;;;;;;;26.35;66.80;98504.59;6219566;23;20154;-88
2023/06/26 06:05:05;;;;;;;11.33;6.90;;;;;;;26.43;66.85;98507.97;6246111;23;20561;-87
2023/06/26 06:07:34;;;;;;;10.73;6.17;;;;;;;26.55;66.67;98510.94;6246892;23;20149;-89
2023/06/26 06:10:00;;;;;;;12.30;5.80;;;;;;;26.72;66.21;98506.91;6219699;23;20153;-89
2023/06/26 06:12:26;;;;;;;11.40;5.50;;;;;;;26.79;65.12;98514.03;6246148;23;20159;-89
2023/06/26 06:14:52;;;;;;;11.40;6.23;;;;;;;26.77;64.61;98510.69;6246169;23;20172;-87
2023/06/26 06:17:22;;;;;;;14.52;6.78;;;;;;;26.64;63.80;98509.75;6220057;23;20173;-86
2023/06/26 06:19:48;;;;;;;12.23;6.25;;;;;;;26.72;64.81;98506.91;6219479;23;20254;-86
2023/06/26 06:22:13;;;;;;;13.37;6.43;;;;;;;26.80;64.51;98510.31;6246065;23;20587;-88
2023/06/26 06:24:39;;;;;;;11.40;6.30;;;;;;;26.91;64.05;98516.16;6219883;23;20158;-89
2023/06/26 06:27:04;;;;;;;14.97;5.67;;;;;;;26.87;64.36;98518.41;6246146;23;20156;-88
2023/06/26 06:29:30;;;;;;;15.02;6.47;;;;;;;26.91;64.16;98522.38;6246002;23;20177;-89
2023/06/26 06:31:57;;;;;;;10.80;6.00;;;;;;;26.93;64.69;98525.69;6245799;23;20173;-89
2023/06/26 06:34:23;;;;;;;14.23;6.20;;;;;;;26.97;65.05;98520.72;6219575;23;20184;-89
2023/06/26 06:36:49;;;;;;;11.98;6.13;;;;;;;27.08;64.48;98521.00;6246006;23;20199;-89
2023/06/26 06:39:15;;;;;;;16.67;6.25;;;;;;;27.07;64.45;98524.69;6245860;23;20156;-88
2023/06/26 06:41:40;;;;;;;13.38;6.60;;;;;;;27.04;64.49;98530.50;6246038;23;20145;-88
2023/06/26 06:44:06;;;;;;;14.70;6.60;;;;;;;27.15;65.04;98529.09;6219467;23;20509;-89
2023/06/26 06:46:31;;;;;;;17.10;6.30;;;;;;;27.06;63.65;98531.13;6246599;23;20160;-88
2023/06/26 06:48:57;;;;;;;11.70;5.43;;;;;;;26.95;63.86;98537.06;6219393;23;20236;-88
2023/06/26 06:51:22;;;;;;;15.03;5.30;;;;;;;26.95;64.96;98537.06;6245618;23;20188;-86
2023/06/26 06:53:48;;;;;;;10.88;6.32;;;;;;;26.79;65.04;98532.84;6245994;23;20149;-89
2023/06/26 06:56:13;;;;;;;14.63;6.30;;;;;;;26.76;65.43;98529.69;6246213;23;20181;-87
2023/06/26 06:58:42;;;;;;;11.07;5.70;;;;;;;26.62;65.41;98530.63;6245698;23;20149;-88
2023/06/26 07:01:07;;;;;;;8.75;5.18;;;;;;;26.57;65.45;98527.72;6245726;23;20183;-88
2023/06/26 07:03:33;;;;;;;8.52;4.75;;;;;;;26.49;66.97;98533.25;6245822;23;20156;-88
2023/06/26 07:05:58;;;;;;;8.87;4.57;;;;;;;26.65;66.02;98530.25;6245827;23;20287;-88
2023/06/26 07:08:24;;;;;;;9.67;4.47;;;;;;;26.61;65.94;98529.81;6245784;23;20156;-87
2023/06/26 07:10:49;;;;;;;9.60;4.15;;;;;;;26.77;65.36;98532.22;6246006;23;20152;-88
2023/06/26 07:13:15;;;;;;;8.15;4.47;;;;;;;26.99;65.76;98530.25;6219669;23;20239;-88
2023/06/26 07:15:40;;;;;;;8.85;3.60;;;;;;;27.43;64.28;98527.16;6245794;23;20157;-86
2023/06/26 07:18:05;;;;;;;7.60;4.18;;;;;;;27.90;60.19;98531.63;6219376;23;20479;-86
2023/06/26 07:20:31;;;;;;;6.78;3.00;;;;;;;28.08;56.54;98526.50;6245713;23;20169;-86
2023/06/26 07:22:56;;;;;;;6.57;3.20;;;;;;;28.32;57.12;98528.56;6245725;23;20149;-87
2023/06/26 07:25:22;;;;;;;11.90;3.28;;;;;;;28.91;56.76;98527.66;6245732;23;20153;-88
2023/06/26 07:27:47;;;;;;;5.68;2.85;;;;;;;29.06;58.28;98522.84;6245752;23;20145;-88
2023/06/26 07:30:13;;;;;;;5.22;2.67;;;;;;;29.40;56.88;98530.66;6246404;23;20156;-88
2023/06/26 07:32:40;;;;;;;10.75;3.47;;;;;;;29.59;54.68;98524.28;6219445;23;20191;-88
2023/06/26 07:35:06;;;;;;;6.80;3.17;;;;;;;29.68;51.58;98524.88;6219722;23;20157;-88
2023/06/26 07:37:31;;;;;;;5.90;2.65;;;;;;;30.00;51.88;98533.84;6245686;23;20149;-89
2023/06/26 07:39:57;;;;;;;6.18;2.33;;;;;;;30.33;50.04;98529.00;6219147;23;20177;-89
2023/06/26 07:42:22;;;;;;;8.98;2.67;;;;;;;30.61;51.55;98525.88;6246044;23;20159;-91
2023/06/26 07:44:48;;;;;;;6.00;1.98;;;;;;;30.67;49.51;98531.19;6221001;23;20157;-88
2023/06/26 07:47:13;;;;;;;6.50;2.88;;;;;;;30.80;50.10;98528.38;6247374;23;20477;-89
2023/06/26 07:49:40;;;;;;;5.80;1.85;;;;;;;31.05;47.92;98543.75;6247465;23;20142;-87
2023/06/26 07:52:06;;;;;;;3.53;1.75;;;;;;;31.14;45.05;98536.97;6247580;23;20169;-87
2023/06/26 07:54:32;;;;;;;5.93;2.15;;;;;;;31.15;46.29;98536.75;6247337;23;20156;-87
2023/06/26 07:57:00;;;;;;;3.58;1.73;;;;;;;31.18;46.10;98540.88;6220929;23;20157;-89
2023/06/26 07:59:27;;;;;;;5.13;2.00;;;;;;;31.15;46.16;98538.63;6247190;23;20479;-91
2023/06/26 08:01:53;;;;;;;3.67;1.75;;;;;;;30.98;47.20;98541.94;6220744;23;20161;-89
2023/06/26 08:04:20;;;;;;;3.50;1.83;;;;;;;31.21;45.87;98540.44;6247295;23;20153;-89
2023/06/26 08:06:51;;;;;;;5.55;2.22;;;;;;;31.18;46.88;98538.19;6247151;23;20153;-91
2023/06/26 08:09:18;;;;;;;2.78;1.75;;;;;;;31.14;48.68;98537.78;6247702;23;20137;-90
2023/06/26 08:11:44;;;;;;;3.60;1.50;;;;;;;31.20;46.06;98539.59;6247300;23;20149;-88
2023/06/26 08:14:11;;;;;;;3.75;1.60;;;;;;;31.11;45.47;98545.53;6247237;23;20160;-89
2023/06/26 08:16:38;;;;;;;5.53;1.70;;;;;;;31.08;45.66;98537.88;6221133;23;20153;-89
2023/06/26 08:19:03;;;;;;;4.05;1.67;;;;;;;30.99;47.11;98545.47;6247721;23;20582;-87
2023/06/26 08:21:29;;;;;;;5.78;1.25;;;;;;;30.81;45.38;98548.97;6247060;23;20227;-88
2023/06/26 08:23:54;;;;;;;2.42;1.33;;;;;;;30.75;45.33;98549.03;6247175;23;20265;-87
2023/06/26 08:26:19;;;;;;;5.53;1.23;;;;;;;30.64;45.83;98547.03;6247073;23;20561;-88
2023/06/26 08:28:45;;;;;;;2.42;1.17;;;;;;;30.64;48.05;98550.59;6247761;23;20160;-90
2023/06/26 08:31:10;;;;;;;5.38;1.45;;;;;;;30.81;45.46;98548.97;6247050;23;20152;-89
2023/06/26 08:33:36;;;;;;;3.65;1.10;;;;;;;30.89;45.67;98545.13;6220611;23;20573;-88
2023/06/26 08:36:01;;;;;;;2.78;1.25;;;;;;;30.97;45.04;98556.53;6247013;23;20638;-88
2023/06/26 08:38:27;;;;;;;3.10;1.13;;;;;;;30.85;44.38;98550.16;6246920;23;20560;-90
2023/06/26 08:40:52;;;;;;;3.13;0.93;;;;;;;30.75;45.46;98554.44;6246878;23;20180;-88
2023/06/26 08:43:19;;;;;;;3.85;1.00;;;;;;;30.72;46.18;98550.28;6246804;23;20145;-87
2023/06/26 08:45:46;;;;;;;3.08;1.25;;;;;;;30.80;46.87;98550.00;6247448;23;20572;-89
2023/06/26 08:48:12;;;;;;;3.53;0.88;;;;;;;30.81;46.82;98548.97;6246879;23;20641;-88
2023/06/26 08:50:38;;;;;;;3.80;1.20;;;;;;;30.90;46.27;98553.03;6220782;23;20224;-88
2023/06/26 08:53:13;;;;;;;2.97;0.82;;;;;;;30.82;45.56;98541.66;6246752;23;20192;-88
2023/06/26 08:55:41;;;;;;;2.40;1.10;;;;;;;30.84;44.65;98548.53;6221100;23;20152;-89
2023/06/26 08:58:07;;;;;;;2.45;0.85;;;;;;;30.69;44.40;98556.16;6246787;23;20149;-88
2023/06/26 09:00:33;;;;;;;3.40;1.10;;;;;;;30.56;45.71;98556.28;6246630;23;20173;-88
2023/06/26 09:02:59;;;;;;;2.08;0.77;;;;;;;30.61;45.50;98553.72;6247128;23;20145;-88
2023/06/26 09:05:27;;;;;;;2.53;1.05;;;;;;;30.75;45.67;98549.03;6246780;23;20157;-89
2023/06/26 09:07:55;;;;;;;2.72;0.82;;;;;;;30.52;46.14;98557.78;6246967;23;20145;-88
2023/06/26 09:10:24;;;;;;;1.60;0.52;;;;;;;30.50;46.26;98550.94;6220473;23;20176;-88
2023/06/26 09:12:49;;;;;;;2.90;1.00;;;;;;;30.41;44.51;98551.22;6246621;23;20236;-88
2023/06/26 09:15:16;;;;;;;3.47;1.25;;;;;;;30.39;45.21;98557.91;6220154;23;20180;-87
2023/06/26 09:17:42;;;;;;;1.63;0.88;;;;;;;30.42;45.27;98552.84;6220030;23;20252;-88
2023/06/26 09:20:08;;;;;;;3.83;1.15;;;;;;;30.34;44.26;98546.88;6219975;23;20205;-87
2023/06/26 09:22:38;;;;;;;3.88;0.80;;;;;;;30.34;43.95;98555.84;6246468;23;20156;-87
2023/06/26 09:25:04;;;;;;;4.07;1.20;;;;;;;30.34;44.91;98557.69;6246483;23;20145;-89
2023/06/26 09:27:30;;;;;;;2.22;0.95;;;;;;;30.28;44.48;98561.28;6246541;23;20149;-88
2023/06/26 09:29:58;;;;;;;1.70;0.70;;;;;;;30.32;44.29;98560.59;6246634;23;20155;-87
2023/06/26 09:32:27;;;;;;;4.72;1.45;;;;;;;30.27;45.67;98565.00;6246485;23;20156;-88
2023/06/26 09:34:57;;;;;;;3.67;0.80;;;;;;;30.31;46.17;98558.13;6246324;23;20455;-88
2023/06/26 09:37:22;;;;;;;2.85;1.08;;;;;;;30.40;46.46;98556.81;6219935;23;20240;-88
2023/06/26 09:39:49;;;;;;;2.67;1.10;;;;;;;30.50;47.69;98557.19;6246267;23;20205;-88
2023/06/26 09:42:15;;;;;;;3.53;0.82;;;;;;;30.63;46.70;98561.63;6246353;23;20145;-89
2023/06/26 09:44:45;;;;;;;3.17;1.27;;;;;;;30.62;46.37;98563.50;6246642;23;20185;-88
2023/06/26 09:47:10;;;;;;;2.25;0.77;;;;;;;30.62;44.68;98560.81;6246329;23;20161;-88
2023/06/26 09:49:36;;;;;;;1.60;0.80;;;;;;;30.58;45.70;98565.03;6246264;23;20545;-88
2023/06/26 09:52:02;;;;;;;1.85;0.63;;;;;;;30.55;45.61;98565.47;6219926;23;20173;-88
2023/06/26 09:54:30;;;;;;;2.75;0.93;;;;;;;30.47;45.13;98563.03;6246145;23;20145;-88
2023/06/26 09:57:07;;;;;;;5.47;0.88;;;;;;;30.54;47.10;98571.06;6219757;23;20152;-89
2023/06/26 09:59:33;;;;;;;1.80;0.65;;;;;;;30.49;44.72;98570.91;6246845;23;20165;-89
2023/06/26 10:01:59;;;;;;;3.97;1.10;;;;;;;30.52;46.29;98565.06;6246143;23;20229;-89
2023/06/26 10:04:25;;;;;;;1.73;0.55;;;;;;;30.63;44.70;98551.66;6219767;23;20157;-89
2023/06/26 10:06:54;;;;;;;2.00;0.90;;;;;;;30.73;45.54;98561.97;6245501;23;20206;-88
2023/06/26 10:09:20;;;;;;;2.03;0.60;;;;;;;30.89;45.73;98559.50;6246211;23;20145;-89
2023/06/26 10:11:58;;;;;;;2.22;0.80;;;;;;;30.96;47.47;98554.88;6246119;23;20153;-88
2023/06/26 10:14:27;;;;;;;2.35;0.80;;;;;;;31.09;45.80;98542.22;6246088;23;20175;-87
2023/06/26 10:16:58;;;;;;;1.70;0.60;;;;;;;31.00;46.69;98547.13;6245909;23;20145;-88
2023/06/26 10:19:26;;;;;;;2.75;0.85;;;;;;;31.08;46.59;98543.31;6219604;23;20539;-88
2023/06/26 10:21:54;;;;;;;1.98;0.80;;;;;;;31.33;48.94;98541.31;6219560;23;20153;-88
2023/06/26 10:24:22;;;;;;;1.10;0.50;;;;;;;31.67;47.25;98542.56;6245996;23;20222;-89
2023/06/26 10:26:53;;;;;;;1.90;0.90;;;;;;;31.86;45.36;98542.31;6245986;23;20145;-89
2023/06/26 10:29:20;;;;;;;1.15;0.40;;;;;;;31.92;43.31;98544.06;6246003;23;20537;-88
2023/06/26 10:31:52;;;;;;;1.60;0.50;;;;;;;31.95;44.99;98551.75;6245873;23;20173;-88
2023/06/26 10:34:18;;;;;;;3.78;0.82;;;;;;;32.10;42.71;98540.50;6219642;23;20624;-88
2023/06/26 10:36:44;;;;;;;2.17;0.75;;;;;;;32.29;42.42;98531.22;6219917;23;20569;-88
2023/06/26 10:39:09;;;;;;;2.08;0.90;;;;;;;32.56;41.68;98539.75;6245924;23;20156;-88
2023/06/26 10:41:42;;;;;;;2.92;0.80;;;;;;;32.73;40.98;98538.00;6219429;23;20153;-88
2023/06/26 10:44:17;;;;;;;6.95;1.10;;;;;;;32.77;40.31;98536.44;6219717;23;20149;-88
2023/06/26 10:46:49;;;;;;;2.33;1.30;;;;;;;32.68;39.65;98537.84;6246327;23;20137;-88
2023/06/26 10:49:15;;;;;;;4.10;1.05;;;;;;;32.61;41.38;98529.03;6245895;23;20145;-88
2023/06/26 10:51:49;;;;;;;2.65;1.02;;;;;;;32.47;39.98;98525.69;6219345;23;20283;-88
2023/06/26 10:54:16;;;;;;;2.80;1.02;;;;;;;32.60;41.50;98521.97;6245933;23;20144;-88
2023/06/26 10:56:47;;;;;;;4.55;1.25;;;;;;;32.61;41.28;98524.41;6245813;23;20160;-88
2023/06/26 10:59:18;;;;;;;5.05;1.48;;;;;;;32.69;42.25;98515.94;6246162;23;20145;-88
2023/06/26 11:01:46;;;;;;;3.80;1.27;;;;;;;32.76;41.61;98511.19;6245505;23;20207;-88
2023/06/26 11:04:14;;;;;;;3.60;1.15;;;;;;;32.89;43.14;98510.09;6219375;23;20149;-89
2023/06/26 11:06:40;;;;;;;4.38;1.05;;;;;;;33.18;42.13;98509.13;6245706;23;20149;-89
2023/06/26 11:09:05;;;;;;;2.13;1.17;;;;;;;33.38;41.45;98514.16;6246004;23;20150;-89
2023/06/26 11:11:58;;;;;;;5.38;1.13;;;;;;;33.59;38.89;98504.53;6219207;23;20164;-89
2023/06/26 11:14:25;;;;;;;2.95;1.13;;;;;;;33.61;39.24;98500.50;6246494;23;20141;-88
2023/06/26 11:16:50;;;;;;;2.83;0.85;;;;;;;33.78;40.55;98503.28;6219326;23;20164;-89
2023/06/26 11:19:18;;;;;;;2.25;0.70;;;;;;;34.05;39.59;98487.97;6220801;23;20161;-89
2023/06/26 11:21:44;;;;;;;2.65;1.02;;;;;;;34.06;39.68;98497.81;6221259;23;20559;-88
2023/06/26 11:24:11;;;;;;;3.30;1.13;;;;;;;33.82;38.69;98498.97;6247916;23;20173;-89
2023/06/26 11:26:44;;;;;;;2.53;1.08;;;;;;;33.71;40.45;98483.56;6221449;23;20157;-89
2023/06/26 11:29:11;;;;;;;2.08;0.73;;;;;;;33.84;40.47;98494.94;6247563;23;20157;-90